sensor_id;sensor_type;location;lat;lon;timestamp;P1;durP1;ratioP1;P2;durP2;ratioP2
33421;SDS011;19763;55.798;37.782;2022-12-18T00:01:36;12.25;;;9.65;;
33421;SDS011;19763;55.798;37.782;2022-12-18T00:04:03;14.27;;;10.60;;
33421;SDS011;19763;55.798;37.782;2022-12-18T00:06:32;13.15;;;9.77;;
33421;SDS011;19763;55.798;37.782;2022-12-18T00:09:00;14.80;;;10.55;;
33421;SDS011;19763;55.798;37.782;2022-12-18T00:11:27;11.50;;;9.32;;
33421;SDS011;19763;55.798;37.782;2022-12-18T00:13:55;11.77;;;9.27;;
33421;SDS011;19763;55.798;37.782;2022-12-18T00:16:23;13.55;;;9.95;;
33421;SDS011;19763;55.798;37.782;2022-12-18T00:18:51;13.55;;;9.93;;
33421;SDS011;19763;55.798;37.782;2022-12-18T00:21:19;13.27;;;9.48;;
33421;SDS011;19763;55.798;37.782;2022-12-18T00:23:46;14.18;;;10.23;;
33421;SDS011;19763;55.798;37.782;2022-12-18T00:26:14;13.13;;;9.63;;
33421;SDS011;19763;55.798;37.782;2022-12-18T00:28:48;11.82;;;9.48;;
33421;SDS011;19763;55.798;37.782;2022-12-18T00:31:14;11.80;;;9.50;;
33421;SDS011;19763;55.798;37.782;2022-12-18T00:33:42;13.88;;;9.93;;
33421;SDS011;19763;55.798;37.782;2022-12-18T00:36:27;16.30;;;9.35;;
33421;SDS011;19763;55.798;37.782;2022-12-18T00:38:55;12.10;;;9.48;;
33421;SDS011;19763;55.798;37.782;2022-12-18T00:41:21;12.38;;;9.40;;
33421;SDS011;19763;55.798;37.782;2022-12-18T00:44:07;11.60;;;9.13;;
33421;SDS011;19763;55.798;37.782;2022-12-18T00:46:34;10.88;;;8.57;;
33421;SDS011;19763;55.798;37.782;2022-12-18T00:49:00;11.35;;;9.07;;
33421;SDS011;19763;55.798;37.782;2022-12-18T00:51:26;12.43;;;9.50;;
33421;SDS011;19763;55.798;37.782;2022-12-18T00:53:52;13.10;;;9.77;;
33421;SDS011;19763;55.798;37.782;2022-12-18T00:56:18;11.20;;;8.52;;
33421;SDS011;19763;55.798;37.782;2022-12-18T00:58:43;12.05;;;8.88;;
33421;SDS011;19763;55.798;37.782;2022-12-18T01:01:09;12.43;;;9.65;;
33421;SDS011;19763;55.798;37.782;2022-12-18T01:03:54;10.93;;;8.40;;
33421;SDS011;19763;55.798;37.782;2022-12-18T01:06:20;11.20;;;8.90;;
33421;SDS011;19763;55.798;37.782;2022-12-18T01:08:46;12.02;;;8.65;;
33421;SDS011;19763;55.798;37.782;2022-12-18T01:11:16;11.15;;;9.27;;
33421;SDS011;19763;55.798;37.782;2022-12-18T01:13:43;11.30;;;8.55;;
33421;SDS011;19763;55.798;37.782;2022-12-18T01:16:11;11.88;;;8.93;;
33421;SDS011;19763;55.798;37.782;2022-12-18T01:18:38;11.30;;;8.82;;
33421;SDS011;19763;55.798;37.782;2022-12-18T01:21:14;10.63;;;8.30;;
33421;SDS011;19763;55.798;37.782;2022-12-18T01:23:41;11.25;;;8.57;;
33421;SDS011;19763;55.798;37.782;2022-12-18T01:26:07;11.57;;;9.02;;
33421;SDS011;19763;55.798;37.782;2022-12-18T01:28:35;11.70;;;9.00;;
33421;SDS011;19763;55.798;37.782;2022-12-18T01:31:14;11.40;;;8.98;;
33421;SDS011;19763;55.798;37.782;2022-12-18T01:33:40;9.98;;;8.40;;
33421;SDS011;19763;55.798;37.782;2022-12-18T01:36:06;10.93;;;8.73;;
33421;SDS011;19763;55.798;37.782;2022-12-18T01:38:32;12.07;;;8.18;;
33421;SDS011;19763;55.798;37.782;2022-12-18T01:40:58;10.30;;;8.27;;
33421;SDS011;19763;55.798;37.782;2022-12-18T01:43:47;9.85;;;7.80;;
33421;SDS011;19763;55.798;37.782;2022-12-18T01:46:19;9.98;;;7.97;;
33421;SDS011;19763;55.798;37.782;2022-12-18T01:48:48;12.80;;;9.15;;
33421;SDS011;19763;55.798;37.782;2022-12-18T01:51:16;11.32;;;8.90;;
33421;SDS011;19763;55.798;37.782;2022-12-18T01:53:42;9.45;;;7.40;;
33421;SDS011;19763;55.798;37.782;2022-12-18T01:56:11;11.90;;;8.52;;
33421;SDS011;19763;55.798;37.782;2022-12-18T01:58:41;9.30;;;7.78;;
33421;SDS011;19763;55.798;37.782;2022-12-18T02:01:15;11.57;;;8.18;;
33421;SDS011;19763;55.798;37.782;2022-12-18T02:03:42;9.75;;;8.10;;
33421;SDS011;19763;55.798;37.782;2022-12-18T02:19:06;9.35;;;7.70;;
33421;SDS011;19763;55.798;37.782;2022-12-18T02:21:48;10.57;;;8.20;;
33421;SDS011;19763;55.798;37.782;2022-12-18T02:24:29;10.73;;;7.72;;
33421;SDS011;19763;55.798;37.782;2022-12-18T02:27:13;11.45;;;7.95;;
33421;SDS011;19763;55.798;37.782;2022-12-18T02:29:40;10.30;;;7.88;;
33421;SDS011;19763;55.798;37.782;2022-12-18T02:32:13;9.50;;;7.35;;
33421;SDS011;19763;55.798;37.782;2022-12-18T02:34:42;10.88;;;8.48;;
33421;SDS011;19763;55.798;37.782;2022-12-18T02:37:11;9.70;;;7.38;;
33421;SDS011;19763;55.798;37.782;2022-12-18T02:39:39;9.60;;;8.00;;
33421;SDS011;19763;55.798;37.782;2022-12-18T02:42:08;11.23;;;8.43;;
33421;SDS011;19763;55.798;37.782;2022-12-18T02:44:35;9.57;;;7.22;;
33421;SDS011;19763;55.798;37.782;2022-12-18T02:47:09;9.90;;;7.43;;
33421;SDS011;19763;55.798;37.782;2022-12-18T02:49:49;9.90;;;7.80;;
33421;SDS011;19763;55.798;37.782;2022-12-18T03:00:43;9.23;;;6.88;;
33421;SDS011;19763;55.798;37.782;2022-12-18T03:03:24;9.27;;;7.90;;
33421;SDS011;19763;55.798;37.782;2022-12-18T03:05:53;9.35;;;7.38;;
33421;SDS011;19763;55.798;37.782;2022-12-18T03:08:26;8.98;;;7.45;;
33421;SDS011;19763;55.798;37.782;2022-12-18T03:10:57;10.82;;;7.50;;
33421;SDS011;19763;55.798;37.782;2022-12-18T03:13:28;8.68;;;7.35;;
33421;SDS011;19763;55.798;37.782;2022-12-18T03:15:59;8.00;;;7.03;;
33421;SDS011;19763;55.798;37.782;2022-12-18T03:18:33;9.30;;;7.53;;
33421;SDS011;19763;55.798;37.782;2022-12-18T03:21:03;8.35;;;7.03;;
33421;SDS011;19763;55.798;37.782;2022-12-18T03:23:34;8.75;;;7.35;;
33421;SDS011;19763;55.798;37.782;2022-12-18T03:26:07;10.18;;;8.23;;
33421;SDS011;19763;55.798;37.782;2022-12-18T03:28:36;10.07;;;7.60;;
33421;SDS011;19763;55.798;37.782;2022-12-18T03:31:07;10.30;;;7.72;;
33421;SDS011;19763;55.798;37.782;2022-12-18T03:33:39;10.40;;;7.93;;
33421;SDS011;19763;55.798;37.782;2022-12-18T03:36:11;9.75;;;7.70;;
33421;SDS011;19763;55.798;37.782;2022-12-18T03:38:36;9.07;;;7.30;;
33421;SDS011;19763;55.798;37.782;2022-12-18T03:41:22;9.05;;;7.25;;
33421;SDS011;19763;55.798;37.782;2022-12-18T03:47:13;10.43;;;7.57;;
33421;SDS011;19763;55.798;37.782;2022-12-18T03:55:00;10.80;;;8.18;;
33421;SDS011;19763;55.798;37.782;2022-12-18T03:57:28;8.88;;;7.38;;
33421;SDS011;19763;55.798;37.782;2022-12-18T03:59:57;10.90;;;8.40;;
33421;SDS011;19763;55.798;37.782;2022-12-18T04:02:28;10.95;;;8.05;;
33421;SDS011;19763;55.798;37.782;2022-12-18T04:04:57;10.25;;;7.80;;
33421;SDS011;19763;55.798;37.782;2022-12-18T04:07:27;9.07;;;6.90;;
33421;SDS011;19763;55.798;37.782;2022-12-18T04:09:55;9.52;;;7.30;;
33421;SDS011;19763;55.798;37.782;2022-12-18T04:12:26;10.65;;;7.50;;
33421;SDS011;19763;55.798;37.782;2022-12-18T04:14:54;9.32;;;7.20;;
33421;SDS011;19763;55.798;37.782;2022-12-18T04:17:20;8.40;;;6.70;;
33421;SDS011;19763;55.798;37.782;2022-12-18T04:19:46;10.32;;;7.78;;
33421;SDS011;19763;55.798;37.782;2022-12-18T04:22:12;7.88;;;6.80;;
33421;SDS011;19763;55.798;37.782;2022-12-18T04:24:37;9.13;;;6.88;;
33421;SDS011;19763;55.798;37.782;2022-12-18T04:27:03;8.68;;;7.45;;
33421;SDS011;19763;55.798;37.782;2022-12-18T04:29:29;9.73;;;7.68;;
33421;SDS011;19763;55.798;37.782;2022-12-18T04:31:55;9.07;;;7.05;;
33421;SDS011;19763;55.798;37.782;2022-12-18T04:34:20;12.07;;;7.97;;
33421;SDS011;19763;55.798;37.782;2022-12-18T04:36:46;11.63;;;9.68;;
33421;SDS011;19763;55.798;37.782;2022-12-18T04:39:12;9.82;;;7.63;;
33421;SDS011;19763;55.798;37.782;2022-12-18T04:41:37;7.63;;;6.57;;
33421;SDS011;19763;55.798;37.782;2022-12-18T04:44:03;9.57;;;7.93;;
33421;SDS011;19763;55.798;37.782;2022-12-18T04:46:29;11.10;;;8.20;;
33421;SDS011;19763;55.798;37.782;2022-12-18T04:48:55;11.45;;;7.15;;
33421;SDS011;19763;55.798;37.782;2022-12-18T04:51:20;10.27;;;7.20;;
33421;SDS011;19763;55.798;37.782;2022-12-18T04:53:46;9.30;;;7.53;;
33421;SDS011;19763;55.798;37.782;2022-12-18T04:56:13;8.75;;;6.97;;
33421;SDS011;19763;55.798;37.782;2022-12-18T04:58:41;10.50;;;7.55;;
33421;SDS011;19763;55.798;37.782;2022-12-18T05:01:08;8.77;;;7.43;;
33421;SDS011;19763;55.798;37.782;2022-12-18T05:03:35;9.38;;;7.57;;
33421;SDS011;19763;55.798;37.782;2022-12-18T05:06:01;13.68;;;7.07;;
33421;SDS011;19763;55.798;37.782;2022-12-18T05:08:27;8.50;;;6.93;;
33421;SDS011;19763;55.798;37.782;2022-12-18T05:10:59;10.10;;;7.25;;
33421;SDS011;19763;55.798;37.782;2022-12-18T05:13:30;11.35;;;7.60;;
33421;SDS011;19763;55.798;37.782;2022-12-18T05:15:56;8.63;;;6.95;;
33421;SDS011;19763;55.798;37.782;2022-12-18T05:18:22;10.70;;;7.30;;
33421;SDS011;19763;55.798;37.782;2022-12-18T05:20:49;10.32;;;6.93;;
33421;SDS011;19763;55.798;37.782;2022-12-18T05:23:16;9.40;;;6.70;;
33421;SDS011;19763;55.798;37.782;2022-12-18T05:25:42;9.85;;;7.45;;
33421;SDS011;19763;55.798;37.782;2022-12-18T05:28:07;10.82;;;7.10;;
33421;SDS011;19763;55.798;37.782;2022-12-18T05:30:33;9.20;;;6.88;;
33421;SDS011;19763;55.798;37.782;2022-12-18T05:35:49;8.10;;;6.80;;
33421;SDS011;19763;55.798;37.782;2022-12-18T05:38:25;9.55;;;7.38;;
33421;SDS011;19763;55.798;37.782;2022-12-18T05:40:52;9.35;;;6.82;;
33421;SDS011;19763;55.798;37.782;2022-12-18T05:43:19;7.55;;;6.53;;
33421;SDS011;19763;55.798;37.782;2022-12-18T05:45:46;8.02;;;6.82;;
33421;SDS011;19763;55.798;37.782;2022-12-18T05:48:13;9.05;;;7.47;;
33421;SDS011;19763;55.798;37.782;2022-12-18T05:50:39;10.18;;;6.65;;
33421;SDS011;19763;55.798;37.782;2022-12-18T05:53:06;8.60;;;6.65;;
33421;SDS011;19763;55.798;37.782;2022-12-18T05:55:35;8.77;;;6.38;;
33421;SDS011;19763;55.798;37.782;2022-12-18T05:58:03;9.07;;;7.00;;
33421;SDS011;19763;55.798;37.782;2022-12-18T06:00:29;8.40;;;6.60;;
33421;SDS011;19763;55.798;37.782;2022-12-18T06:02:57;8.50;;;6.88;;
33421;SDS011;19763;55.798;37.782;2022-12-18T06:05:22;8.75;;;6.80;;
33421;SDS011;19763;55.798;37.782;2022-12-18T06:07:48;9.13;;;7.10;;
33421;SDS011;19763;55.798;37.782;2022-12-18T06:10:14;8.75;;;6.95;;
33421;SDS011;19763;55.798;37.782;2022-12-18T06:12:39;15.75;;;7.40;;
33421;SDS011;19763;55.798;37.782;2022-12-18T06:15:05;8.77;;;6.60;;
33421;SDS011;19763;55.798;37.782;2022-12-18T06:17:31;8.45;;;7.00;;
33421;SDS011;19763;55.798;37.782;2022-12-18T06:19:58;8.98;;;7.30;;
33421;SDS011;19763;55.798;37.782;2022-12-18T06:22:23;9.05;;;6.97;;
33421;SDS011;19763;55.798;37.782;2022-12-18T06:24:50;8.45;;;6.72;;
33421;SDS011;19763;55.798;37.782;2022-12-18T06:27:16;8.23;;;6.28;;
33421;SDS011;19763;55.798;37.782;2022-12-18T06:29:41;8.20;;;6.65;;
33421;SDS011;19763;55.798;37.782;2022-12-18T06:32:07;8.63;;;6.95;;
33421;SDS011;19763;55.798;37.782;2022-12-18T06:34:33;11.25;;;6.53;;
33421;SDS011;19763;55.798;37.782;2022-12-18T06:36:59;8.90;;;6.53;;
33421;SDS011;19763;55.798;37.782;2022-12-18T06:39:28;8.45;;;6.70;;
33421;SDS011;19763;55.798;37.782;2022-12-18T06:41:53;8.02;;;6.55;;
33421;SDS011;19763;55.798;37.782;2022-12-18T06:44:19;10.23;;;7.55;;
33421;SDS011;19763;55.798;37.782;2022-12-18T06:46:45;8.27;;;6.93;;
33421;SDS011;19763;55.798;37.782;2022-12-18T06:49:10;10.60;;;6.90;;
33421;SDS011;19763;55.798;37.782;2022-12-18T06:51:36;10.02;;;6.78;;
33421;SDS011;19763;55.798;37.782;2022-12-18T06:54:02;9.40;;;7.13;;
33421;SDS011;19763;55.798;37.782;2022-12-18T06:56:28;8.68;;;6.95;;
33421;SDS011;19763;55.798;37.782;2022-12-18T06:58:53;8.77;;;7.25;;
33421;SDS011;19763;55.798;37.782;2022-12-18T07:01:20;9.27;;;7.18;;
33421;SDS011;19763;55.798;37.782;2022-12-18T07:03:46;9.70;;;6.88;;
33421;SDS011;19763;55.798;37.782;2022-12-18T07:06:15;8.77;;;6.60;;
33421;SDS011;19763;55.798;37.782;2022-12-18T07:08:43;9.40;;;7.00;;
33421;SDS011;19763;55.798;37.782;2022-12-18T07:11:09;8.27;;;6.35;;
33421;SDS011;19763;55.798;37.782;2022-12-18T07:13:35;7.82;;;6.25;;
33421;SDS011;19763;55.798;37.782;2022-12-18T07:18:56;8.77;;;6.60;;
33421;SDS011;19763;55.798;37.782;2022-12-18T07:21:22;9.48;;;7.00;;
33421;SDS011;19763;55.798;37.782;2022-12-18T07:23:48;9.10;;;7.22;;
33421;SDS011;19763;55.798;37.782;2022-12-18T07:26:16;11.18;;;6.70;;
33421;SDS011;19763;55.798;37.782;2022-12-18T07:28:43;8.00;;;6.47;;
33421;SDS011;19763;55.798;37.782;2022-12-18T07:31:13;10.45;;;7.38;;
33421;SDS011;19763;55.798;37.782;2022-12-18T07:33:43;8.45;;;6.32;;
33421;SDS011;19763;55.798;37.782;2022-12-18T07:36:10;8.13;;;6.50;;
33421;SDS011;19763;55.798;37.782;2022-12-18T07:38:36;8.15;;;6.72;;
33421;SDS011;19763;55.798;37.782;2022-12-18T07:43:28;9.57;;;6.88;;
33421;SDS011;19763;55.798;37.782;2022-12-18T07:45:54;9.65;;;6.65;;
33421;SDS011;19763;55.798;37.782;2022-12-18T07:48:19;8.38;;;6.28;;
33421;SDS011;19763;55.798;37.782;2022-12-18T07:50:45;10.48;;;7.68;;
33421;SDS011;19763;55.798;37.782;2022-12-18T07:53:11;9.45;;;7.13;;
33421;SDS011;19763;55.798;37.782;2022-12-18T07:55:36;8.23;;;6.40;;
33421;SDS011;19763;55.798;37.782;2022-12-18T07:58:02;9.23;;;6.57;;
33421;SDS011;19763;55.798;37.782;2022-12-18T08:00:29;9.52;;;7.28;;
33421;SDS011;19763;55.798;37.782;2022-12-18T08:02:56;8.95;;;6.53;;
33421;SDS011;19763;55.798;37.782;2022-12-18T08:05:22;9.27;;;6.18;;
33421;SDS011;19763;55.798;37.782;2022-12-18T08:07:47;8.95;;;6.15;;
33421;SDS011;19763;55.798;37.782;2022-12-18T08:10:13;8.75;;;6.63;;
33421;SDS011;19763;55.798;37.782;2022-12-18T08:12:39;9.20;;;6.90;;
33421;SDS011;19763;55.798;37.782;2022-12-18T08:15:04;7.68;;;6.68;;
33421;SDS011;19763;55.798;37.782;2022-12-18T08:17:31;7.05;;;6.07;;
33421;SDS011;19763;55.798;37.782;2022-12-18T08:19:56;8.57;;;6.22;;
33421;SDS011;19763;55.798;37.782;2022-12-18T08:22:22;8.35;;;6.93;;
33421;SDS011;19763;55.798;37.782;2022-12-18T08:24:47;8.35;;;6.40;;
33421;SDS011;19763;55.798;37.782;2022-12-18T08:27:13;7.78;;;6.32;;
33421;SDS011;19763;55.798;37.782;2022-12-18T08:29:38;7.75;;;6.40;;
33421;SDS011;19763;55.798;37.782;2022-12-18T08:32:04;7.35;;;5.85;;
33421;SDS011;19763;55.798;37.782;2022-12-18T08:34:30;7.05;;;6.35;;
33421;SDS011;19763;55.798;37.782;2022-12-18T08:36:55;8.98;;;6.38;;
33421;SDS011;19763;55.798;37.782;2022-12-18T08:39:21;9.88;;;6.68;;
33421;SDS011;19763;55.798;37.782;2022-12-18T08:41:46;8.30;;;6.68;;
33421;SDS011;19763;55.798;37.782;2022-12-18T08:44:32;7.85;;;6.75;;
33421;SDS011;19763;55.798;37.782;2022-12-18T08:47:04;11.50;;;7.13;;
33421;SDS011;19763;55.798;37.782;2022-12-18T08:49:33;10.52;;;6.68;;
33421;SDS011;19763;55.798;37.782;2022-12-18T08:51:59;10.27;;;6.43;;
33421;SDS011;19763;55.798;37.782;2022-12-18T08:54:26;9.73;;;6.65;;
33421;SDS011;19763;55.798;37.782;2022-12-18T08:56:52;10.07;;;6.63;;
33421;SDS011;19763;55.798;37.782;2022-12-18T08:59:17;9.00;;;6.70;;
33421;SDS011;19763;55.798;37.782;2022-12-18T09:01:44;10.75;;;6.85;;
33421;SDS011;19763;55.798;37.782;2022-12-18T09:04:10;8.10;;;6.05;;
33421;SDS011;19763;55.798;37.782;2022-12-18T09:06:36;8.38;;;6.38;;
33421;SDS011;19763;55.798;37.782;2022-12-18T09:09:02;7.78;;;6.28;;
33421;SDS011;19763;55.798;37.782;2022-12-18T09:11:29;8.00;;;6.22;;
33421;SDS011;19763;55.798;37.782;2022-12-18T09:13:55;8.93;;;6.72;;
33421;SDS011;19763;55.798;37.782;2022-12-18T09:16:22;7.95;;;6.07;;
33421;SDS011;19763;55.798;37.782;2022-12-18T09:18:48;8.68;;;6.78;;
33421;SDS011;19763;55.798;37.782;2022-12-18T09:21:23;7.38;;;6.00;;
33421;SDS011;19763;55.798;37.782;2022-12-18T09:23:49;7.32;;;5.85;;
33421;SDS011;19763;55.798;37.782;2022-12-18T09:26:16;9.07;;;6.40;;
33421;SDS011;19763;55.798;37.782;2022-12-18T09:28:41;7.95;;;5.53;;
33421;SDS011;19763;55.798;37.782;2022-12-18T09:31:08;9.48;;;6.47;;
33421;SDS011;19763;55.798;37.782;2022-12-18T09:33:37;8.50;;;6.00;;
33421;SDS011;19763;55.798;37.782;2022-12-18T09:36:03;8.18;;;5.85;;
33421;SDS011;19763;55.798;37.782;2022-12-18T09:38:30;8.63;;;6.22;;
33421;SDS011;19763;55.798;37.782;2022-12-18T09:43:50;6.80;;;5.60;;
33421;SDS011;19763;55.798;37.782;2022-12-18T09:46:21;8.30;;;5.80;;
33421;SDS011;19763;55.798;37.782;2022-12-18T09:48:52;6.72;;;5.50;;
33421;SDS011;19763;55.798;37.782;2022-12-18T09:51:39;8.73;;;5.90;;
33421;SDS011;19763;55.798;37.782;2022-12-18T09:54:14;6.18;;;5.45;;
33421;SDS011;19763;55.798;37.782;2022-12-18T09:56:44;7.88;;;5.20;;
33421;SDS011;19763;55.798;37.782;2022-12-18T10:01:47;7.93;;;5.50;;
33421;SDS011;19763;55.798;37.782;2022-12-18T10:04:13;5.95;;;4.57;;
33421;SDS011;19763;55.798;37.782;2022-12-18T10:09:32;7.13;;;5.40;;
33421;SDS011;19763;55.798;37.782;2022-12-18T10:14:47;6.57;;;5.18;;
33421;SDS011;19763;55.798;37.782;2022-12-18T10:20:02;5.57;;;4.50;;
33421;SDS011;19763;55.798;37.782;2022-12-18T10:22:43;7.53;;;5.20;;
33421;SDS011;19763;55.798;37.782;2022-12-18T10:25:22;6.63;;;4.70;;
33421;SDS011;19763;55.798;37.782;2022-12-18T10:28:15;8.82;;;5.38;;
33421;SDS011;19763;55.798;37.782;2022-12-18T10:30:43;7.88;;;5.47;;
33421;SDS011;19763;55.798;37.782;2022-12-18T10:33:12;6.50;;;4.70;;
33421;SDS011;19763;55.798;37.782;2022-12-18T10:35:44;7.20;;;5.38;;
33421;SDS011;19763;55.798;37.782;2022-12-18T10:40:50;6.28;;;5.25;;
33421;SDS011;19763;55.798;37.782;2022-12-18T10:46:00;5.93;;;4.88;;
33421;SDS011;19763;55.798;37.782;2022-12-18T10:48:28;7.95;;;5.45;;
33421;SDS011;19763;55.798;37.782;2022-12-18T10:50:54;7.80;;;5.63;;
33421;SDS011;19763;55.798;37.782;2022-12-18T10:53:25;7.30;;;5.68;;
33421;SDS011;19763;55.798;37.782;2022-12-18T10:55:53;7.25;;;5.57;;
33421;SDS011;19763;55.798;37.782;2022-12-18T10:58:28;6.50;;;5.10;;
33421;SDS011;19763;55.798;37.782;2022-12-18T11:03:58;5.68;;;4.35;;
33421;SDS011;19763;55.798;37.782;2022-12-18T11:06:26;6.45;;;5.35;;
33421;SDS011;19763;55.798;37.782;2022-12-18T11:11:51;9.60;;;4.97;;
33421;SDS011;19763;55.798;37.782;2022-12-18T11:14:22;7.10;;;5.93;;
33421;SDS011;19763;55.798;37.782;2022-12-18T11:16:50;7.50;;;5.70;;
33421;SDS011;19763;55.798;37.782;2022-12-18T11:21:51;7.20;;;5.07;;
33421;SDS011;19763;55.798;37.782;2022-12-18T11:24:26;7.03;;;5.22;;
33421;SDS011;19763;55.798;37.782;2022-12-18T11:26:56;6.55;;;5.05;;
33421;SDS011;19763;55.798;37.782;2022-12-18T11:29:26;9.23;;;5.63;;
33421;SDS011;19763;55.798;37.782;2022-12-18T11:35:23;7.75;;;4.97;;
33421;SDS011;19763;55.798;37.782;2022-12-18T11:38:12;8.30;;;5.38;;
33421;SDS011;19763;55.798;37.782;2022-12-18T11:40:43;6.45;;;5.20;;
33421;SDS011;19763;55.798;37.782;2022-12-18T11:43:14;6.72;;;4.85;;
33421;SDS011;19763;55.798;37.782;2022-12-18T11:45:52;7.07;;;5.78;;
33421;SDS011;19763;55.798;37.782;2022-12-18T11:48:34;7.20;;;5.40;;
33421;SDS011;19763;55.798;37.782;2022-12-18T11:51:09;8.05;;;5.22;;
33421;SDS011;19763;55.798;37.782;2022-12-18T11:53:40;7.88;;;5.22;;
33421;SDS011;19763;55.798;37.782;2022-12-18T11:56:26;7.10;;;5.10;;
33421;SDS011;19763;55.798;37.782;2022-12-18T11:59:27;9.18;;;5.93;;
33421;SDS011;19763;55.798;37.782;2022-12-18T12:10:22;6.80;;;4.82;;
33421;SDS011;19763;55.798;37.782;2022-12-18T12:15:48;6.75;;;4.90;;
33421;SDS011;19763;55.798;37.782;2022-12-18T12:32:27;8.20;;;5.60;;
33421;SDS011;19763;55.798;37.782;2022-12-18T12:40:28;7.38;;;5.03;;
33421;SDS011;19763;55.798;37.782;2022-12-18T12:42:58;5.82;;;4.53;;
33421;SDS011;19763;55.798;37.782;2022-12-18T12:48:05;6.03;;;4.60;;
33421;SDS011;19763;55.798;37.782;2022-12-18T12:50:36;6.32;;;4.30;;
33421;SDS011;19763;55.798;37.782;2022-12-18T12:53:06;6.93;;;4.93;;
33421;SDS011;19763;55.798;37.782;2022-12-18T12:55:36;7.82;;;5.20;;
33421;SDS011;19763;55.798;37.782;2022-12-18T13:00:41;4.18;;;3.60;;
33421;SDS011;19763;55.798;37.782;2022-12-18T13:06:02;8.13;;;4.93;;
33421;SDS011;19763;55.798;37.782;2022-12-18T13:08:53;6.65;;;4.30;;
33421;SDS011;19763;55.798;37.782;2022-12-18T13:22:45;6.88;;;5.53;;
33421;SDS011;19763;55.798;37.782;2022-12-18T13:25:33;6.70;;;4.72;;
33421;SDS011;19763;55.798;37.782;2022-12-18T13:38:22;8.98;;;5.05;;
33421;SDS011;19763;55.798;37.782;2022-12-18T13:41:00;8.45;;;5.70;;
33421;SDS011;19763;55.798;37.782;2022-12-18T13:43:50;8.20;;;5.45;;
33421;SDS011;19763;55.798;37.782;2022-12-18T13:46:21;10.50;;;6.25;;
33421;SDS011;19763;55.798;37.782;2022-12-18T13:49:17;10.57;;;6.53;;
33421;SDS011;19763;55.798;37.782;2022-12-18T13:51:43;11.20;;;7.43;;
33421;SDS011;19763;55.798;37.782;2022-12-18T13:56:59;13.93;;;8.05;;
33421;SDS011;19763;55.798;37.782;2022-12-18T13:59:38;18.20;;;9.57;;
33421;SDS011;19763;55.798;37.782;2022-12-18T14:02:15;18.70;;;10.20;;
33421;SDS011;19763;55.798;37.782;2022-12-18T14:04:44;19.70;;;10.93;;
33421;SDS011;19763;55.798;37.782;2022-12-18T14:07:12;19.77;;;11.77;;
33421;SDS011;19763;55.798;37.782;2022-12-18T14:12:24;18.40;;;11.10;;
33421;SDS011;19763;55.798;37.782;2022-12-18T14:20:50;23.70;;;12.32;;
33421;SDS011;19763;55.798;37.782;2022-12-18T14:26:03;21.23;;;12.43;;
33421;SDS011;19763;55.798;37.782;2022-12-18T14:28:48;19.52;;;12.55;;
33421;SDS011;19763;55.798;37.782;2022-12-18T14:31:20;18.95;;;12.05;;
33421;SDS011;19763;55.798;37.782;2022-12-18T14:33:47;18.10;;;10.80;;
33421;SDS011;19763;55.798;37.782;2022-12-18T14:36:17;19.77;;;10.85;;
33421;SDS011;19763;55.798;37.782;2022-12-18T14:38:51;19.50;;;11.07;;
33421;SDS011;19763;55.798;37.782;2022-12-18T14:41:21;17.90;;;10.20;;
33421;SDS011;19763;55.798;37.782;2022-12-18T14:43:48;18.58;;;9.50;;
33421;SDS011;19763;55.798;37.782;2022-12-18T14:49:03;15.00;;;9.23;;
33421;SDS011;19763;55.798;37.782;2022-12-18T14:51:46;13.07;;;8.27;;
33421;SDS011;19763;55.798;37.782;2022-12-18T14:54:15;11.70;;;7.75;;
33421;SDS011;19763;55.798;37.782;2022-12-18T14:56:44;11.52;;;7.57;;
33421;SDS011;19763;55.798;37.782;2022-12-18T14:59:21;12.43;;;8.15;;
33421;SDS011;19763;55.798;37.782;2022-12-18T15:02:23;11.80;;;7.78;;
33421;SDS011;19763;55.798;37.782;2022-12-18T15:05:05;10.20;;;6.72;;
33421;SDS011;19763;55.798;37.782;2022-12-18T15:07:44;10.23;;;6.72;;
33421;SDS011;19763;55.798;37.782;2022-12-18T15:17:58;7.70;;;5.82;;
33421;SDS011;19763;55.798;37.782;2022-12-18T15:20:24;9.25;;;5.82;;
33421;SDS011;19763;55.798;37.782;2022-12-18T15:22:50;7.90;;;6.13;;
33421;SDS011;19763;55.798;37.782;2022-12-18T15:25:31;6.78;;;5.57;;
33421;SDS011;19763;55.798;37.782;2022-12-18T15:27:59;6.90;;;5.00;;
33421;SDS011;19763;55.798;37.782;2022-12-18T15:30:25;9.43;;;6.53;;
33421;SDS011;19763;55.798;37.782;2022-12-18T15:32:51;7.95;;;6.10;;
33421;SDS011;19763;55.798;37.782;2022-12-18T15:35:24;8.02;;;5.75;;
33421;SDS011;19763;55.798;37.782;2022-12-18T15:37:50;7.72;;;6.13;;
33421;SDS011;19763;55.798;37.782;2022-12-18T15:40:20;7.78;;;6.03;;
33421;SDS011;19763;55.798;37.782;2022-12-18T15:42:50;8.60;;;5.25;;
33421;SDS011;19763;55.798;37.782;2022-12-18T15:45:37;8.07;;;5.72;;
33421;SDS011;19763;55.798;37.782;2022-12-18T15:48:08;7.53;;;5.32;;
33421;SDS011;19763;55.798;37.782;2022-12-18T15:50:46;7.13;;;5.68;;
33421;SDS011;19763;55.798;37.782;2022-12-18T15:53:12;7.85;;;5.65;;
33421;SDS011;19763;55.798;37.782;2022-12-18T15:55:37;7.25;;;5.47;;
33421;SDS011;19763;55.798;37.782;2022-12-18T15:58:22;6.85;;;5.32;;
33421;SDS011;19763;55.798;37.782;2022-12-18T16:00:47;6.15;;;4.93;;
33421;SDS011;19763;55.798;37.782;2022-12-18T16:03:13;6.35;;;5.00;;
33421;SDS011;19763;55.798;37.782;2022-12-18T16:05:38;5.90;;;4.80;;
33421;SDS011;19763;55.798;37.782;2022-12-18T16:08:04;6.15;;;4.97;;
33421;SDS011;19763;55.798;37.782;2022-12-18T16:10:29;13.10;;;7.88;;
33421;SDS011;19763;55.798;37.782;2022-12-18T16:12:55;7.32;;;5.20;;
33421;SDS011;19763;55.798;37.782;2022-12-18T16:15:21;7.30;;;5.35;;
33421;SDS011;19763;55.798;37.782;2022-12-18T16:17:47;7.80;;;5.82;;
33421;SDS011;19763;55.798;37.782;2022-12-18T16:20:15;6.85;;;4.88;;
33421;SDS011;19763;55.798;37.782;2022-12-18T16:22:43;6.10;;;5.00;;
33421;SDS011;19763;55.798;37.782;2022-12-18T16:25:20;6.50;;;5.45;;
33421;SDS011;19763;55.798;37.782;2022-12-18T16:27:56;8.68;;;5.90;;
33421;SDS011;19763;55.798;37.782;2022-12-18T16:30:27;9.13;;;6.65;;
33421;SDS011;19763;55.798;37.782;2022-12-18T16:32:55;8.38;;;6.05;;
33421;SDS011;19763;55.798;37.782;2022-12-18T16:35:21;7.75;;;5.75;;
33421;SDS011;19763;55.798;37.782;2022-12-18T16:37:47;7.57;;;5.97;;
33421;SDS011;19763;55.798;37.782;2022-12-18T16:40:14;7.55;;;6.00;;
33421;SDS011;19763;55.798;37.782;2022-12-18T16:42:41;8.63;;;6.18;;
33421;SDS011;19763;55.798;37.782;2022-12-18T16:45:09;8.77;;;6.57;;
33421;SDS011;19763;55.798;37.782;2022-12-18T16:47:36;6.80;;;5.88;;
33421;SDS011;19763;55.798;37.782;2022-12-18T16:50:03;7.53;;;6.35;;
33421;SDS011;19763;55.798;37.782;2022-12-18T16:52:29;7.18;;;5.80;;
33421;SDS011;19763;55.798;37.782;2022-12-18T16:54:55;8.10;;;5.93;;
33421;SDS011;19763;55.798;37.782;2022-12-18T16:57:21;7.85;;;6.20;;
33421;SDS011;19763;55.798;37.782;2022-12-18T16:59:47;8.52;;;6.38;;
33421;SDS011;19763;55.798;37.782;2022-12-18T17:02:14;7.40;;;6.22;;
33421;SDS011;19763;55.798;37.782;2022-12-18T17:04:42;6.55;;;5.60;;
33421;SDS011;19763;55.798;37.782;2022-12-18T17:07:08;8.75;;;6.32;;
33421;SDS011;19763;55.798;37.782;2022-12-18T17:09:34;7.97;;;6.38;;
33421;SDS011;19763;55.798;37.782;2022-12-18T17:12:00;13.88;;;8.15;;
33421;SDS011;19763;55.798;37.782;2022-12-18T17:14:26;7.18;;;5.88;;
33421;SDS011;19763;55.798;37.782;2022-12-18T17:16:52;7.63;;;5.65;;
33421;SDS011;19763;55.798;37.782;2022-12-18T17:19:18;8.30;;;6.13;;